PDT,Max TemperatureF,Mean TemperatureF,Min TemperatureF,Max Dew PointF,MeanDew PointF,Min DewpointF,Max Humidity, Mean Humidity, Min Humidity, Max Sea Level PressureIn, Mean Sea Level PressureIn, Min Sea Level PressureIn, Max VisibilityMiles, Mean VisibilityMiles, Min VisibilityMiles, Max Wind SpeedMPH, Mean Wind SpeedMPH, Max Gust SpeedMPH,PrecipitationIn, CloudCover, Events, WindDirDegrees
2013-10-1,51,43,34,42,38,34,92,79,66,30.15,30.00,29.91,10,10,3,16,6,21,0.01,4,Rain,166
2013-10-2,52,43,33,38,36,32,96,75,54,30.19,30.13,30.07,10,10,10,12,5,16,0.01,5,,8
2013-10-3,61,44,27,39,32,27,96,65,33,30.43,30.27,30.09,10,10,10,14,4,17,0.00,2,,22
2013-10-4,58,42,25,35,31,25,92,64,36,30.55,30.49,30.43,10,10,10,8,2,10,0.00,0,,22
2013-10-5,61,44,26,37,32,26,100,67,33,30.48,30.41,30.31,10,10,8,8,2,17,0.00,0,,207
2013-10-6,68,50,31,40,35,31,92,62,32,30.30,30.14,29.97,10,10,10,8,3,9,0.00,0,,7
2013-10-7,61,45,29,46,36,29,100,70,39,29.97,29.88,29.80,10,9,2,32,8,44,0.18,3,Rain-Thunderstorm,216
2013-10-8,51,42,32,42,37,30,100,83,65,30.06,29.94,29.87,10,8,1,13,6,16,0.09,6,Rain,173
2013-10-9,56,45,33,40,37,32,100,74,47,30.12,30.04,29.91,10,9,0,14,5,17,0.00,2,Fog,40
2013-10-10,53,40,26,42,36,28,100,80,59,30.04,29.93,29.86,10,8,2,9,3,13,T,5,Rain,183
2013-10-11,55,39,23,36,29,21,100,71,41,30.17,30.09,30.00,10,6,0,7,2,9,0.00,3,Fog,35
2013-10-12,56,43,29,34,32,29,82,60,38,30.18,30.10,30.05,10,10,10,10,5,15,0.00,6,,14
2013-10-13,58,42,25,32,29,23,92,64,36,30.33,30.25,30.18,10,10,10,9,3,12,0.00,0,,331
2013-10-14,59,41,23,31,27,23,92,60,28,30.45,30.41,30.34,10,10,9,9,3,,0.00,0,,5
2013-10-15,56,39,21,33,26,19,96,67,38,30.48,30.38,30.22,10,7,0,9,1,13,0.00,0,Fog-Snow,297
2013-10-16,58,43,28,41,34,28,100,72,43,30.22,30.19,30.16,10,10,6,7,1,10,0.00,3,,25
2013-10-17,59,42,24,39,28,21,100,70,40,30.32,30.23,30.18,10,4,0,15,1,20,0.00,2,Fog,340
2013-10-18,58,41,23,38,28,21,100,72,43,30.37,30.29,30.23,10,5,0,8,1,26,0.00,1,Fog,168
2013-10-19,60,42,23,39,29,23,100,70,40,30.23,30.17,30.12,10,6,0,9,2,14,0.00,2,Fog,311
2013-10-20,61,43,25,40,32,24,100,73,46,30.22,30.17,30.13,10,5,0,8,2,23,0.00,1,Fog,90
2013-10-21,63,45,26,43,35,28,100,72,43,30.28,30.22,30.17,10,6,0,6,1,7,0.00,1,Fog,1
2013-10-22,63,45,27,44,35,27,100,74,48,30.28,30.22,30.17,10,5,0,7,1,8,0.00,0,Fog,7
2013-10-23,63,46,28,45,35,28,100,74,48,30.24,30.17,30.14,10,5,0,8,2,9,0.00,1,Fog,13
2013-10-24,60,44,28,43,35,28,100,77,53,30.20,30.14,30.11,10,4,0,7,1,17,0.00,1,Fog,6
2013-10-25,56,41,26,44,33,25,100,83,66,30.34,30.25,30.15,10,3,0,6,2,8,0.00,2,Fog,357
2013-10-26,51,39,27,42,34,28,100,87,74,30.38,30.28,30.12,10,3,0,6,2,26,0.00,3,Fog,14
2013-10-27,48,41,34,43,35,23,100,71,41,30.10,29.92,29.83,10,5,0,35,13,47,0.06,8,Fog-Rain-Snow,28
2013-10-28,47,41,34,31,19,15,89,60,31,30.07,30.02,29.96,10,10,5,28,15,37,T,1,Snow,32
2013-10-29,48,34,20,25,19,15,88,61,34,30.06,30.03,29.98,10,10,10,12,4,15,0.00,0,,351
2013-10-30,45,30,15,27,21,12,92,69,45,30.16,30.11,30.06,10,10,9,7,1,16,0.00,2,,172
2013-10-31,53,39,25,35,31,25,92,71,50,30.19,30.11,30.07,10,10,7,9,3,13,0.02,3,Rain,232